ADDS METAR Data INFO
IDs: Format: Raw Decoded Include TAF

Data at: 0105 UTC 21 Oct 2017

KEWN 210054Z 20003KT 10SM CLR 16/14 A3023 RMK AO2 SLP235 T01560144
KEWN 202354Z 00000KT 10SM CLR 16/14 A3022 RMK AO2 SLP232 T01610139 10267 20161 53012
KEWN 202254Z 00000KT 10SM CLR 18/16 A3019 RMK AO2 SLP224 T01830156
KEWN 202154Z 00000KT 10SM CLR 22/16 A3018 RMK AO2 SLP220 T02170161
KEWN 202054Z 12003KT 10SM CLR 26/09 A3018 RMK AO2 SLP220 T02560094 56008
KEWN 201954Z 02006KT 10SM CLR 26/09 A3018 RMK AO2 SLP221 T02610089
KEWN 201854Z 00000KT 10SM CLR 26/08 A3019 RMK AO2 SLP222 T02610083
KEWN 201754Z 34004KT 10SM CLR 26/09 A3021 RMK AO2 SLP229 T02560094 10261 20106 58020
KEWN 201654Z VRB03KT 10SM CLR 25/09 A3024 RMK AO2 SLP238 T02500094
KEWN 201554Z 27006KT 10SM CLR 24/08 A3026 RMK AO2 SLP245 T02390083
KEWN 201454Z 24004KT 10SM CLR 22/12 A3027 RMK AO2 SLP248 T02170117 50006
KEWN 201354Z 27003KT 10SM CLR 19/13 A3027 RMK AO2 SLP250 T01940128
KEWN 201254Z 00000KT 10SM CLR 16/14 A3027 RMK AO2 SLP248 T01560144
KEWN 201154Z 00000KT 10SM MIFG CLR 11/11 A3025 RMK AO2 SLP242 T01060106 10133 20106 53011
KEWN 201054Z 00000KT 10SM MIFG FEW002 11/11 A3023 RMK AO2 SLP236 T01060106
KEWN 201008Z 00000KT 10SM CLR 11/11 A3022 RMK AO2 T01060106
KEWN 200956Z 00000KT 1 1/2SM BR CLR 12/12 A3022 RMK AO2 T01170117
KEWN 200954Z 00000KT 5SM BR CLR 11/11 A3022 RMK AO2 SLP233 T01110111
KEWN 200854Z AUTO 00000KT 10SM CLR 12/11 A3021 RMK AO2 SLP231 T01170111 55002
KEWN 200754Z AUTO 00000KT 10SM CLR 12/12 A3021 RMK AO2 SLP230 T01220122
KEWN 200654Z AUTO 00000KT 7SM CLR 12/12 A3021 RMK AO2 SLP230 T01220122
KEWN 200554Z AUTO 00000KT 10SM CLR 12/12 A3022 RMK AO2 SLP233 T01220122 10172 20122 55000
KEWN 200454Z AUTO 00000KT 10SM CLR 14/14 A3022 RMK AO2 SLP231 T01390139 402670133
KEWN 200354Z AUTO 00000KT 10SM CLR 14/14 A3022 RMK AO2 SLP234 T01390139
KEWN 200320Z AUTO 00000KT 9SM FEW003 14/14 A3022 RMK AO2 T01440139
KEWN 200254Z AUTO 00000KT 10SM CLR 14/14 A3022 RMK AO2 SLP233 T01390139 52004
KEWN 200154Z AUTO 00000KT 10SM CLR 14/14 A3022 RMK AO2 SLP232 T01440144
KEWN 200054Z 00000KT 10SM CLR 16/15 A3021 RMK AO2 SLP230 T01610150
KEWN 192354Z 20003KT 10SM CLR 17/16 A3021 RMK AO2 SLP229 T01720156 10267 20167 53006
KEWN 192254Z 00000KT 10SM CLR 17/15 A3019 RMK AO2 SLP224 T01720150
KEWN 192154Z 13003KT 10SM CLR 22/16 A3019 RMK AO2 SLP221 T02220156
KEWN 192054Z 10003KT 10SM CLR 25/14 A3019 RMK AO2 SLP223 T02500139 56012
KEWN 191954Z VRB03KT 10SM CLR 26/12 A3020 RMK AO2 SLP225 T02610122
KEWN 191854Z 00000KT 10SM CLR 26/12 A3020 RMK AO2 SLP226 T02610122
KEWN 191754Z 10003KT 10SM FEW048 25/13 A3023 RMK AO2 SLP234 T02500133 10256 20150 58021
KEWN 191654Z VRB03KT 10SM CLR 24/14 A3026 RMK AO2 SLP246 T02440144
KEWN 191554Z 09006KT 10SM CLR 24/16 A3029 RMK AO2 SLP255 T02390156
KEWN 191454Z 05006KT 10SM CLR 22/16 A3029 RMK AO2 SLP256 T02220156 50004
KEWN 191354Z 06004KT 10SM CLR 21/17 A3029 RMK AO2 SLP257 T02060167